sensor_id;sensor_type;location;lat;lon;timestamp;P1;durP1;ratioP1;P2;durP2;ratioP2
5827;SDS011;42583;50.240;8.444;2023-03-01T00:07:14;12.77;;;5.07;;
5827;SDS011;42583;50.240;8.444;2023-03-01T00:22:15;16.17;;;6.73;;
5827;SDS011;42583;50.240;8.444;2023-03-01T00:37:16;14.72;;;7.10;;
5827;SDS011;42583;50.240;8.444;2023-03-01T00:52:16;16.70;;;7.20;;
5827;SDS011;42583;50.240;8.444;2023-03-01T01:07:17;18.20;;;7.43;;
5827;SDS011;42583;50.240;8.444;2023-03-01T01:22:20;14.13;;;6.53;;
5827;SDS011;42583;50.240;8.444;2023-03-01T01:37:20;17.23;;;7.27;;
5827;SDS011;42583;50.240;8.444;2023-03-01T01:52:27;15.47;;;6.07;;
5827;SDS011;42583;50.240;8.444;2023-03-01T02:07:31;13.07;;;6.63;;
5827;SDS011;42583;50.240;8.444;2023-03-01T02:22:33;18.07;;;7.30;;
5827;SDS011;42583;50.240;8.444;2023-03-01T02:37:36;19.10;;;7.43;;
5827;SDS011;42583;50.240;8.444;2023-03-01T02:52:40;17.73;;;7.53;;
5827;SDS011;42583;50.240;8.444;2023-03-01T03:07:52;16.97;;;7.50;;
5827;SDS011;42583;50.240;8.444;2023-03-01T03:22:53;17.40;;;7.97;;
5827;SDS011;42583;50.240;8.444;2023-03-01T03:37:56;19.03;;;8.53;;
5827;SDS011;42583;50.240;8.444;2023-03-01T03:53:07;21.20;;;8.70;;
5827;SDS011;42583;50.240;8.444;2023-03-01T04:08:10;26.10;;;7.97;;
5827;SDS011;42583;50.240;8.444;2023-03-01T04:23:15;15.10;;;7.63;;
5827;SDS011;42583;50.240;8.444;2023-03-01T04:38:19;25.33;;;7.67;;
5827;SDS011;42583;50.240;8.444;2023-03-01T04:53:21;16.70;;;7.33;;
5827;SDS011;42583;50.240;8.444;2023-03-01T05:08:21;17.43;;;7.53;;
5827;SDS011;42583;50.240;8.444;2023-03-01T05:23:22;25.07;;;9.13;;
5827;SDS011;42583;50.240;8.444;2023-03-01T05:38:23;13.13;;;6.57;;
5827;SDS011;42583;50.240;8.444;2023-03-01T05:53:26;19.70;;;7.90;;
5827;SDS011;42583;50.240;8.444;2023-03-01T06:08:27;17.83;;;7.13;;
5827;SDS011;42583;50.240;8.444;2023-03-01T06:23:28;18.20;;;7.90;;
5827;SDS011;42583;50.240;8.444;2023-03-01T06:38:28;10.73;;;4.83;;
5827;SDS011;42583;50.240;8.444;2023-03-01T06:53:29;21.30;;;8.70;;
5827;SDS011;42583;50.240;8.444;2023-03-01T07:08:30;19.67;;;8.27;;
5827;SDS011;42583;50.240;8.444;2023-03-01T07:23:31;18.73;;;8.27;;
5827;SDS011;42583;50.240;8.444;2023-03-01T07:38:39;20.03;;;7.37;;
5827;SDS011;42583;50.240;8.444;2023-03-01T07:53:40;15.87;;;8.10;;
5827;SDS011;42583;50.240;8.444;2023-03-01T08:08:41;19.40;;;8.50;;
5827;SDS011;42583;50.240;8.444;2023-03-01T08:23:41;18.70;;;7.78;;
5827;SDS011;42583;50.240;8.444;2023-03-01T08:38:43;22.10;;;9.27;;
5827;SDS011;42583;50.240;8.444;2023-03-01T08:53:44;19.00;;;8.52;;
5827;SDS011;42583;50.240;8.444;2023-03-01T09:08:46;18.20;;;9.60;;
5827;SDS011;42583;50.240;8.444;2023-03-01T09:23:50;20.45;;;9.45;;
5827;SDS011;42583;50.240;8.444;2023-03-01T09:38:51;21.27;;;9.43;;
5827;SDS011;42583;50.240;8.444;2023-03-01T09:53:53;18.10;;;9.40;;
5827;SDS011;42583;50.240;8.444;2023-03-01T10:09:03;15.93;;;8.50;;
5827;SDS011;42583;50.240;8.444;2023-03-01T10:24:12;15.32;;;8.50;;
5827;SDS011;42583;50.240;8.444;2023-03-01T10:39:18;15.95;;;7.88;;
5827;SDS011;42583;50.240;8.444;2023-03-01T10:54:25;17.05;;;9.32;;
5827;SDS011;42583;50.240;8.444;2023-03-01T11:09:32;16.48;;;8.23;;
5827;SDS011;42583;50.240;8.444;2023-03-01T11:24:39;16.02;;;9.00;;
5827;SDS011;42583;50.240;8.444;2023-03-01T11:40:03;13.85;;;8.00;;
5827;SDS011;42583;50.240;8.444;2023-03-01T11:55:19;14.00;;;8.55;;
5827;SDS011;42583;50.240;8.444;2023-03-01T12:10:47;13.40;;;7.97;;
5827;SDS011;42583;50.240;8.444;2023-03-01T12:41:38;10.45;;;7.18;;
5827;SDS011;42583;50.240;8.444;2023-03-01T12:56:57;11.45;;;6.80;;
5827;SDS011;42583;50.240;8.444;2023-03-01T13:27:46;11.27;;;7.00;;
5827;SDS011;42583;50.240;8.444;2023-03-01T13:42:50;9.30;;;6.45;;
5827;SDS011;42583;50.240;8.444;2023-03-01T13:57:58;9.68;;;6.50;;
5827;SDS011;42583;50.240;8.444;2023-03-01T14:13:47;11.07;;;6.63;;
5827;SDS011;42583;50.240;8.444;2023-03-01T14:28:45;9.20;;;6.10;;
5827;SDS011;42583;50.240;8.444;2023-03-01T14:43:49;10.75;;;6.15;;
5827;SDS011;42583;50.240;8.444;2023-03-01T14:58:53;10.93;;;6.68;;
5827;SDS011;42583;50.240;8.444;2023-03-01T15:13:58;10.45;;;6.68;;
5827;SDS011;42583;50.240;8.444;2023-03-01T15:28:59;10.05;;;6.65;;
5827;SDS011;42583;50.240;8.444;2023-03-01T15:44:03;11.73;;;6.88;;
5827;SDS011;42583;50.240;8.444;2023-03-01T15:59:15;11.90;;;6.40;;
5827;SDS011;42583;50.240;8.444;2023-03-01T16:14:17;12.18;;;6.63;;
5827;SDS011;42583;50.240;8.444;2023-03-01T16:29:18;12.77;;;6.57;;
5827;SDS011;42583;50.240;8.444;2023-03-01T16:44:18;11.05;;;5.80;;
5827;SDS011;42583;50.240;8.444;2023-03-01T16:59:19;10.95;;;6.00;;
5827;SDS011;42583;50.240;8.444;2023-03-01T17:14:20;13.85;;;5.65;;
5827;SDS011;42583;50.240;8.444;2023-03-01T17:29:21;15.25;;;6.03;;
5827;SDS011;42583;50.240;8.444;2023-03-01T17:44:21;13.50;;;6.22;;
5827;SDS011;42583;50.240;8.444;2023-03-01T17:59:22;13.45;;;5.47;;
5827;SDS011;42583;50.240;8.444;2023-03-01T18:14:23;11.25;;;5.07;;
5827;SDS011;42583;50.240;8.444;2023-03-01T18:29:25;14.35;;;5.88;;
5827;SDS011;42583;50.240;8.444;2023-03-01T18:44:27;12.50;;;5.57;;
5827;SDS011;42583;50.240;8.444;2023-03-01T18:59:28;13.65;;;5.65;;
5827;SDS011;42583;50.240;8.444;2023-03-01T19:14:28;14.32;;;6.28;;
5827;SDS011;42583;50.240;8.444;2023-03-01T19:29:29;15.95;;;6.75;;
5827;SDS011;42583;50.240;8.444;2023-03-01T19:44:30;15.82;;;6.88;;
5827;SDS011;42583;50.240;8.444;2023-03-01T19:59:30;12.93;;;6.05;;
5827;SDS011;42583;50.240;8.444;2023-03-01T20:14:31;15.52;;;6.90;;
5827;SDS011;42583;50.240;8.444;2023-03-01T20:29:31;14.63;;;6.50;;
5827;SDS011;42583;50.240;8.444;2023-03-01T20:44:33;14.50;;;5.80;;
5827;SDS011;42583;50.240;8.444;2023-03-01T20:59:33;16.10;;;7.27;;
5827;SDS011;42583;50.240;8.444;2023-03-01T21:14:34;16.70;;;7.35;;
5827;SDS011;42583;50.240;8.444;2023-03-01T21:29:42;14.90;;;5.47;;
5827;SDS011;42583;50.240;8.444;2023-03-01T21:44:43;17.02;;;6.15;;
5827;SDS011;42583;50.240;8.444;2023-03-01T21:59:44;14.73;;;6.25;;
5827;SDS011;42583;50.240;8.444;2023-03-01T22:14:45;15.93;;;7.13;;
5827;SDS011;42583;50.240;8.444;2023-03-01T22:29:45;17.90;;;7.13;;
5827;SDS011;42583;50.240;8.444;2023-03-01T22:44:46;17.15;;;5.95;;
5827;SDS011;42583;50.240;8.444;2023-03-01T22:59:46;17.98;;;7.50;;
5827;SDS011;42583;50.240;8.444;2023-03-01T23:14:47;17.58;;;7.07;;
5827;SDS011;42583;50.240;8.444;2023-03-01T23:29:50;22.42;;;6.88;;
5827;SDS011;42583;50.240;8.444;2023-03-01T23:44:51;18.20;;;7.32;;
5827;SDS011;42583;50.240;8.444;2023-03-01T23:59:52;19.45;;;8.45;;
